createdAt,value
2023-11-23T00:01:45.938Z,53.20
2023-11-23T00:04:13.801Z,53.33
2023-11-23T00:06:41.543Z,53.50
2023-11-23T00:09:10.730Z,53.67
2023-11-23T00:11:42.267Z,53.80
2023-11-23T00:14:09.938Z,53.76
2023-11-23T00:16:37.923Z,53.71
2023-11-23T00:19:06.507Z,53.72
2023-11-23T00:21:34.043Z,53.60
2023-11-23T00:24:02.609Z,53.03
2023-11-23T00:26:30.304Z,52.93
2023-11-23T00:28:59.864Z,52.99
2023-11-23T00:31:27.733Z,52.95
2023-11-23T00:33:55.665Z,53.05
2023-11-23T00:36:23.672Z,52.78
2023-11-23T00:38:51.468Z,52.08
2023-11-23T00:41:19.305Z,52.14
2023-11-23T00:43:47.064Z,52.29
2023-11-23T00:46:16.813Z,51.92
2023-11-23T00:48:44.565Z,51.27
2023-11-23T00:51:12.280Z,51.04
2023-11-23T00:53:43.756Z,51.10
2023-11-23T00:56:12.240Z,50.66
2023-11-23T00:58:40.210Z,50.81
2023-11-23T01:01:08.631Z,51.22
2023-11-23T01:03:37.413Z,51.04
2023-11-23T01:06:05.494Z,51.05
2023-11-23T01:08:33.621Z,50.88
2023-11-23T01:11:02.840Z,51.21
2023-11-23T01:13:31.052Z,50.99
2023-11-23T01:15:58.860Z,51.16
2023-11-23T01:18:26.516Z,51.42
2023-11-23T01:20:54.281Z,51.45
2023-11-23T01:23:22.924Z,51.40
2023-11-23T01:25:50.481Z,51.48
2023-11-23T01:28:18.093Z,51.62
2023-11-23T01:30:46.266Z,51.78
2023-11-23T01:33:14.594Z,51.59
2023-11-23T01:35:42.449Z,51.68
2023-11-23T01:38:10.534Z,51.74
2023-11-23T01:40:38.148Z,51.75
2023-11-23T01:43:11.667Z,51.68
2023-11-23T01:45:39.738Z,51.83
2023-11-23T01:48:16.258Z,51.76
2023-11-23T01:50:46.140Z,51.98
2023-11-23T01:53:13.865Z,51.99
2023-11-23T01:55:41.391Z,52.06
2023-11-23T01:58:09.087Z,52.21
2023-11-23T02:00:38.245Z,52.51
2023-11-23T02:03:13.377Z,52.75
2023-11-23T02:05:41.340Z,52.87
2023-11-23T02:08:09.054Z,52.92
2023-11-23T02:10:36.615Z,53.02
2023-11-23T02:13:08.066Z,53.13
2023-11-23T02:15:38.764Z,53.17
2023-11-23T02:18:08.793Z,53.20
2023-11-23T02:20:36.889Z,53.36
2023-11-23T02:23:05.382Z,53.46
2023-11-23T02:25:33.034Z,53.48
2023-11-23T02:28:00.692Z,53.35
2023-11-23T02:30:28.422Z,53.32
2023-11-23T02:32:57.756Z,53.42
2023-11-23T02:35:27.208Z,53.40
2023-11-23T02:37:55.234Z,53.46
2023-11-23T02:40:23.052Z,53.34
2023-11-23T02:42:50.668Z,53.32
2023-11-23T02:45:20.423Z,53.13
2023-11-23T02:47:49.497Z,53.24
2023-11-23T02:50:17.466Z,53.26
2023-11-23T02:52:45.107Z,53.50
2023-11-23T02:55:12.969Z,53.80
2023-11-23T02:57:44.415Z,53.82
2023-11-23T03:00:13.762Z,53.75
2023-11-23T03:02:41.663Z,53.71
2023-11-23T03:05:13.590Z,53.74
2023-11-23T03:07:41.325Z,53.95
2023-11-23T03:10:11.050Z,53.94
2023-11-23T03:12:38.542Z,53.91
2023-11-23T03:15:06.698Z,53.81
2023-11-23T03:17:35.482Z,53.74
2023-11-23T03:20:04.438Z,53.74
2023-11-23T03:22:32.513Z,53.66
2023-11-23T03:25:00.478Z,53.56
2023-11-23T03:27:28.044Z,53.34
2023-11-23T03:29:55.825Z,53.28
2023-11-23T03:32:26.764Z,53.12
2023-11-23T03:34:54.430Z,53.07
2023-11-23T03:37:23.298Z,52.56
2023-11-23T03:39:50.850Z,52.13
2023-11-23T03:42:18.681Z,52.09
2023-11-23T03:44:46.460Z,52.36
2023-11-23T03:47:14.162Z,52.47
2023-11-23T03:49:41.709Z,52.26
2023-11-23T03:52:09.369Z,52.10
2023-11-23T03:54:37.446Z,52.27
2023-11-23T03:57:08.000Z,52.31
2023-11-23T03:59:35.947Z,52.28
2023-11-23T04:02:04.867Z,52.38
2023-11-23T04:04:32.587Z,52.49
2023-11-23T04:07:00.270Z,52.69
2023-11-23T04:09:28.057Z,52.83
2023-11-23T04:11:55.814Z,52.93
2023-11-23T04:14:23.661Z,52.99
2023-11-23T04:16:51.479Z,53.12
2023-11-23T04:19:19.032Z,53.33
2023-11-23T04:21:47.976Z,53.35
2023-11-23T04:24:15.981Z,53.62
2023-11-23T04:26:43.626Z,53.78
2023-11-23T04:29:11.238Z,54.02
2023-11-23T04:31:38.941Z,53.99
2023-11-23T04:34:06.655Z,54.06
2023-11-23T04:36:35.588Z,54.30
2023-11-23T04:39:03.180Z,54.43
2023-11-23T04:41:30.879Z,54.54
2023-11-23T04:43:58.685Z,54.54
2023-11-23T04:46:26.473Z,54.60
2023-11-23T04:48:54.441Z,54.89
2023-11-23T04:51:22.109Z,54.90
2023-11-23T04:53:49.660Z,55.13
2023-11-23T04:56:17.561Z,55.25
2023-11-23T04:58:47.042Z,55.23
2023-11-23T05:01:14.705Z,55.45
2023-11-23T05:03:42.549Z,55.45
2023-11-23T05:06:10.540Z,55.53
2023-11-23T05:08:38.290Z,55.70
2023-11-23T05:11:06.055Z,55.83
2023-11-23T05:13:34.256Z,55.97
2023-11-23T05:16:02.075Z,56.06
2023-11-23T05:18:29.765Z,56.07
2023-11-23T05:20:58.232Z,55.83
2023-11-23T05:23:25.938Z,55.83
2023-11-23T05:25:53.981Z,55.58
2023-11-23T05:28:22.949Z,55.52
2023-11-23T05:30:51.080Z,55.50
2023-11-23T05:33:18.914Z,55.38
2023-11-23T05:35:47.039Z,55.31
2023-11-23T05:38:14.693Z,55.36
2023-11-23T05:40:42.237Z,55.23
2023-11-23T05:43:10.060Z,55.28
2023-11-23T05:45:37.811Z,55.26
2023-11-23T05:48:07.401Z,55.30
2023-11-23T05:50:35.159Z,55.29
2023-11-23T05:53:02.868Z,55.33
2023-11-23T05:55:30.365Z,55.46
2023-11-23T05:57:57.967Z,55.54
2023-11-23T06:00:26.422Z,55.47
2023-11-23T06:02:54.516Z,55.65
2023-11-23T06:05:22.349Z,55.49
2023-11-23T06:07:49.946Z,55.78
2023-11-23T06:10:17.860Z,55.77
2023-11-23T06:12:45.680Z,55.54
2023-11-23T06:15:13.365Z,55.58
2023-11-23T06:17:41.464Z,55.64
2023-11-23T06:20:10.048Z,55.61
2023-11-23T06:22:37.900Z,55.55
2023-11-23T06:25:08.819Z,55.22
2023-11-23T06:27:37.284Z,55.13
2023-11-23T06:30:06.985Z,55.03
2023-11-23T06:32:34.884Z,54.53
2023-11-23T06:35:02.632Z,54.64
2023-11-23T06:37:30.233Z,54.57
2023-11-23T06:39:58.562Z,54.44
2023-11-23T06:42:26.286Z,54.39
2023-11-23T06:44:55.439Z,54.59
2023-11-23T06:47:22.936Z,54.63
2023-11-23T06:49:50.855Z,54.60
2023-11-23T06:52:22.154Z,54.50
2023-11-23T06:54:49.985Z,54.50
2023-11-23T06:57:17.674Z,54.70
2023-11-23T06:59:45.900Z,54.57
2023-11-23T07:02:13.558Z,54.75
2023-11-23T07:04:45.695Z,54.88
2023-11-23T07:07:14.326Z,54.77
2023-11-23T07:09:41.867Z,54.67
2023-11-23T07:12:10.301Z,54.50
2023-11-23T07:14:42.948Z,54.53
2023-11-23T07:17:10.651Z,54.71
2023-11-23T07:19:38.111Z,54.66
2023-11-23T07:22:05.637Z,54.78
2023-11-23T07:24:36.676Z,54.59
2023-11-23T07:27:04.877Z,54.21
2023-11-23T07:29:33.221Z,54.03
2023-11-23T07:32:01.097Z,53.94
2023-11-23T07:34:29.890Z,54.03
2023-11-23T07:36:57.577Z,53.92
2023-11-23T07:39:25.446Z,53.96
2023-11-23T07:41:53.439Z,54.05
2023-11-23T07:44:22.081Z,53.76
2023-11-23T07:46:49.642Z,53.68
2023-11-23T07:49:17.994Z,53.76
2023-11-23T07:51:45.524Z,53.76
2023-11-23T07:54:13.034Z,53.95
2023-11-23T07:56:42.314Z,53.79
2023-11-23T07:59:09.775Z,53.75
2023-11-23T08:01:37.314Z,53.89
2023-11-23T08:04:05.157Z,54.02
2023-11-23T08:06:33.652Z,53.66
2023-11-23T08:09:01.405Z,53.74
2023-11-23T08:11:30.037Z,53.63
2023-11-23T08:14:01.416Z,53.43
2023-11-23T08:16:29.267Z,53.73
2023-11-23T08:18:59.526Z,53.91
2023-11-23T08:21:27.478Z,53.76
2023-11-23T08:23:56.232Z,53.47
2023-11-23T08:26:23.778Z,53.38
2023-11-23T08:28:51.346Z,53.40
2023-11-23T08:31:19.348Z,53.41
2023-11-23T08:33:52.602Z,53.67
2023-11-23T08:36:20.486Z,53.73
2023-11-23T08:38:48.285Z,53.62
2023-11-23T08:41:19.767Z,53.72
2023-11-23T08:43:49.981Z,53.58
2023-11-23T08:46:18.604Z,53.49
2023-11-23T08:48:46.575Z,53.44
2023-11-23T08:51:15.006Z,52.96
2023-11-23T08:53:42.617Z,53.02
2023-11-23T08:56:10.171Z,53.10
2023-11-23T08:58:37.838Z,52.82
2023-11-23T09:01:06.320Z,52.72
2023-11-23T09:03:34.191Z,52.54
2023-11-23T09:06:01.951Z,52.26
2023-11-23T09:08:29.712Z,52.46
2023-11-23T09:10:57.204Z,52.70
2023-11-23T09:13:27.362Z,52.39
2023-11-23T09:15:55.742Z,52.40
2023-11-23T09:18:23.785Z,52.36
2023-11-23T09:20:52.687Z,52.35
2023-11-23T09:23:20.456Z,52.19
2023-11-23T09:25:48.057Z,51.97
2023-11-23T09:28:15.927Z,52.08
2023-11-23T09:30:43.604Z,52.29
2023-11-23T09:33:16.548Z,51.66
2023-11-23T09:35:46.802Z,51.82
2023-11-23T09:38:14.362Z,52.03
2023-11-23T09:40:42.372Z,51.87
2023-11-23T09:43:10.963Z,52.06
2023-11-23T09:45:38.773Z,52.13
2023-11-23T09:48:06.774Z,52.18
2023-11-23T09:50:37.942Z,52.02
2023-11-23T09:53:08.017Z,52.07
2023-11-23T09:55:35.683Z,52.12
2023-11-23T09:58:06.089Z,52.12
2023-11-23T10:00:37.381Z,51.74
2023-11-23T10:03:08.704Z,51.51
2023-11-23T10:05:36.565Z,51.96
2023-11-23T10:08:05.657Z,52.06
2023-11-23T10:10:33.266Z,53.45
2023-11-23T10:13:01.191Z,53.93
2023-11-23T10:15:30.162Z,54.36
2023-11-23T10:17:58.031Z,53.96
2023-11-23T10:20:27.710Z,52.92
2023-11-23T10:22:55.776Z,52.38
2023-11-23T10:25:33.230Z,52.43
2023-11-23T10:28:01.565Z,52.59
2023-11-23T10:30:29.791Z,52.34
2023-11-23T10:32:58.185Z,51.91
2023-11-23T10:35:41.545Z,52.07
2023-11-23T10:38:09.419Z,52.21
2023-11-23T10:40:37.178Z,52.15
2023-11-23T10:43:05.002Z,52.17
2023-11-23T10:45:34.870Z,52.55
2023-11-23T10:48:04.679Z,52.40
2023-11-23T10:50:33.608Z,52.24
2023-11-23T10:53:04.903Z,52.50
2023-11-23T10:55:32.947Z,52.82
2023-11-23T10:58:08.023Z,53.17
2023-11-23T11:00:36.227Z,52.80
2023-11-23T11:03:05.891Z,52.71
2023-11-23T11:05:36.564Z,52.94
2023-11-23T11:08:06.951Z,53.13
2023-11-23T11:10:43.687Z,53.14
2023-11-23T11:13:18.952Z,53.05
2023-11-23T11:28:55.336Z,53.36
2023-11-23T11:31:30.624Z,52.50
2023-11-23T11:33:58.397Z,52.51
2023-11-23T11:36:26.913Z,52.69
2023-11-23T11:39:00.703Z,52.74
2023-11-23T11:41:32.646Z,53.22
2023-11-23T11:44:00.252Z,54.04
2023-11-23T11:46:30.859Z,53.99
2023-11-23T11:48:59.391Z,53.83
2023-11-23T11:51:27.971Z,53.97
2023-11-23T11:53:56.502Z,54.30
2023-11-23T11:56:24.298Z,54.48
2023-11-23T11:58:52.346Z,54.40
2023-11-23T12:01:20.383Z,54.29
2023-11-23T12:03:49.053Z,54.50
2023-11-23T12:06:20.456Z,54.65
2023-11-23T12:08:48.156Z,54.73
2023-11-23T12:11:28.872Z,54.94
2023-11-23T12:13:58.817Z,54.91
2023-11-23T12:16:35.857Z,55.20
2023-11-23T12:19:16.839Z,54.94
2023-11-23T12:21:44.598Z,54.85
2023-11-23T12:24:19.309Z,54.90
2023-11-23T12:26:47.873Z,54.88
2023-11-23T12:29:25.713Z,55.19
2023-11-23T12:31:53.484Z,55.36
2023-11-23T12:34:21.404Z,55.49
2023-11-23T12:36:49.056Z,55.42
2023-11-23T12:39:17.219Z,55.61
2023-11-23T12:41:53.157Z,55.71
2023-11-23T12:44:23.078Z,55.80
2023-11-23T12:46:50.808Z,55.97
2023-11-23T12:49:18.936Z,56.05
2023-11-23T12:51:46.469Z,56.01
2023-11-23T12:54:16.006Z,56.00
2023-11-23T12:56:43.863Z,55.89
2023-11-23T12:59:11.685Z,55.81
2023-11-23T13:01:40.502Z,55.87
2023-11-23T13:04:11.352Z,55.82
2023-11-23T13:06:39.283Z,55.97
2023-11-23T13:09:13.029Z,56.04
2023-11-23T13:11:41.289Z,56.22
2023-11-23T13:14:10.991Z,56.24
2023-11-23T13:16:38.745Z,56.58
2023-11-23T13:19:17.168Z,58.75
2023-11-23T13:21:54.972Z,63.14
2023-11-23T13:24:22.807Z,63.04
2023-11-23T13:26:51.096Z,61.67
2023-11-23T13:29:19.706Z,59.95
2023-11-23T13:31:47.991Z,59.20
2023-11-23T13:34:16.284Z,58.96
2023-11-23T13:36:44.197Z,59.59
2023-11-23T13:39:16.050Z,61.88
2023-11-23T13:41:43.849Z,63.91
2023-11-23T13:44:12.312Z,65.86
2023-11-23T13:46:40.244Z,66.35
2023-11-23T13:49:08.944Z,66.09
2023-11-23T13:51:36.740Z,66.77
2023-11-23T13:54:08.116Z,67.83
2023-11-23T13:56:37.316Z,68.32
2023-11-23T13:59:08.748Z,68.75
2023-11-23T14:01:38.546Z,68.81
2023-11-23T14:04:08.742Z,69.11
2023-11-23T14:06:36.315Z,69.39
2023-11-23T14:09:05.416Z,69.83
2023-11-23T14:11:44.273Z,69.70
2023-11-23T14:14:11.910Z,69.73
2023-11-23T14:16:40.298Z,70.02
2023-11-23T14:19:11.051Z,70.27
2023-11-23T14:21:39.736Z,70.68
2023-11-23T14:24:09.255Z,70.99
2023-11-23T14:26:38.038Z,71.28
2023-11-23T14:29:07.716Z,71.42
2023-11-23T14:31:38.077Z,71.37
2023-11-23T14:34:15.800Z,71.69
2023-11-23T14:36:50.854Z,71.46
2023-11-23T14:39:24.928Z,71.43
2023-11-23T14:41:54.323Z,71.61
2023-11-23T14:44:21.892Z,71.61
2023-11-23T14:46:51.469Z,71.01
2023-11-23T14:49:21.785Z,71.05
2023-11-23T14:51:52.520Z,71.08
2023-11-23T14:54:32.101Z,70.93
2023-11-23T14:57:09.508Z,70.90
2023-11-23T14:59:37.687Z,70.55
2023-11-23T15:02:05.777Z,70.32
2023-11-23T15:04:35.261Z,70.19
2023-11-23T15:07:06.962Z,70.02
2023-11-23T15:09:35.102Z,69.86
2023-11-23T15:12:04.095Z,69.36
2023-11-23T15:14:33.016Z,68.48
2023-11-23T15:17:01.506Z,68.25
2023-11-23T15:19:33.374Z,68.20
2023-11-23T15:22:07.614Z,68.07
2023-11-23T15:24:36.091Z,67.78
2023-11-23T15:27:06.320Z,67.62
2023-11-23T15:29:34.682Z,67.41
2023-11-23T15:32:04.723Z,67.33
2023-11-23T15:34:33.256Z,67.37
2023-11-23T15:37:01.429Z,67.33
2023-11-23T15:39:30.263Z,67.16
2023-11-23T15:41:58.396Z,67.07
2023-11-23T15:44:26.676Z,67.22
2023-11-23T15:46:54.427Z,67.40
2023-11-23T15:49:22.167Z,67.37
2023-11-23T15:51:50.069Z,67.29
2023-11-23T15:54:20.644Z,66.97
2023-11-23T15:56:48.267Z,66.80
2023-11-23T15:59:15.925Z,66.78
2023-11-23T16:01:43.636Z,66.83
2023-11-23T16:04:14.197Z,66.83
2023-11-23T16:06:42.184Z,66.76
2023-11-23T16:09:12.878Z,66.73
2023-11-23T16:11:40.691Z,66.63
2023-11-23T16:14:10.534Z,66.61
2023-11-23T16:16:39.315Z,66.82
2023-11-23T16:19:07.021Z,67.24
2023-11-23T16:21:34.813Z,67.44
2023-11-23T16:24:02.681Z,67.33
2023-11-23T16:26:32.414Z,67.38
2023-11-23T16:29:02.409Z,67.49
2023-11-23T16:31:30.151Z,67.76
2023-11-23T16:33:58.041Z,68.17
2023-11-23T16:36:33.314Z,68.10
2023-11-23T16:39:08.486Z,67.67
2023-11-23T16:41:36.488Z,67.34
2023-11-23T16:44:04.465Z,67.24
2023-11-23T16:46:32.248Z,67.12
2023-11-23T16:49:00.112Z,66.96
2023-11-23T16:51:27.792Z,66.87
2023-11-23T16:53:56.492Z,66.68
2023-11-23T16:56:24.721Z,66.66
2023-11-23T16:58:52.287Z,66.85
2023-11-23T17:01:20.308Z,66.86
2023-11-23T17:03:48.198Z,66.79
2023-11-23T17:06:16.003Z,66.73
2023-11-23T17:08:43.668Z,66.75
2023-11-23T17:11:11.236Z,66.35
2023-11-23T17:13:38.790Z,66.08
2023-11-23T17:16:07.329Z,65.94
2023-11-23T17:18:35.197Z,65.75
2023-11-23T17:21:03.192Z,65.62
2023-11-23T17:23:31.889Z,65.72
2023-11-23T17:25:59.376Z,65.58
2023-11-23T17:28:27.009Z,65.57
2023-11-23T17:30:56.154Z,66.25
2023-11-23T17:33:24.654Z,66.57
2023-11-23T17:35:53.207Z,67.12
2023-11-23T17:38:21.435Z,67.39
2023-11-23T17:40:49.102Z,67.79
2023-11-23T17:43:16.754Z,69.10
2023-11-23T17:45:48.778Z,68.82
2023-11-23T17:48:17.057Z,68.94
2023-11-23T17:50:45.120Z,69.05
2023-11-23T17:53:13.083Z,69.08
2023-11-23T17:55:42.178Z,69.10
2023-11-23T17:58:11.048Z,69.18
2023-11-23T18:00:40.573Z,69.49
2023-11-23T18:03:08.277Z,69.52
2023-11-23T18:05:40.155Z,69.69
2023-11-23T18:08:09.958Z,69.53
2023-11-23T18:10:38.161Z,69.47
2023-11-23T18:13:10.331Z,69.52
2023-11-23T18:15:39.253Z,69.56
2023-11-23T18:18:15.419Z,69.64
2023-11-23T18:20:50.490Z,69.61
2023-11-23T18:23:18.162Z,69.47
2023-11-23T18:25:46.130Z,69.43
2023-11-23T18:28:13.739Z,69.33
2023-11-23T18:30:41.416Z,69.44
2023-11-23T18:33:12.229Z,69.30
2023-11-23T18:35:47.232Z,69.12
2023-11-23T18:38:15.822Z,68.79
2023-11-23T18:40:43.982Z,68.57
2023-11-23T18:43:12.121Z,68.34
2023-11-23T18:45:41.898Z,68.38
2023-11-23T18:48:09.869Z,68.40
2023-11-23T18:50:37.600Z,68.35
2023-11-23T18:53:05.262Z,68.23
2023-11-23T18:55:33.332Z,68.08
2023-11-23T18:58:03.612Z,67.88
2023-11-23T19:00:32.518Z,67.81
2023-11-23T19:03:00.670Z,68.27
2023-11-23T19:05:28.387Z,68.74
2023-11-23T19:07:56.061Z,69.07
2023-11-23T19:10:25.860Z,69.07
2023-11-23T19:13:03.328Z,69.12
2023-11-23T19:15:34.010Z,69.58
2023-11-23T19:18:04.454Z,70.02
2023-11-23T19:20:35.790Z,70.29
2023-11-23T19:23:04.509Z,70.45
2023-11-23T19:25:34.844Z,70.46
2023-11-23T19:28:04.001Z,70.58
2023-11-23T19:30:32.561Z,70.68
2023-11-23T19:33:02.544Z,70.85
2023-11-23T19:35:31.000Z,71.18
2023-11-23T19:37:58.906Z,71.63
2023-11-23T19:40:27.064Z,71.34
2023-11-23T19:42:56.506Z,71.26
2023-11-23T19:45:25.253Z,71.28
2023-11-23T19:47:53.730Z,71.34
2023-11-23T19:50:22.700Z,71.40
2023-11-23T19:52:51.475Z,71.59
2023-11-23T19:55:19.424Z,71.66
2023-11-23T19:57:48.373Z,71.62
2023-11-23T20:00:17.363Z,71.55
2023-11-23T20:02:45.339Z,71.59
2023-11-23T20:05:13.291Z,71.77
2023-11-23T20:07:41.229Z,71.92
2023-11-23T20:10:09.427Z,71.91
2023-11-23T20:12:37.936Z,71.84
2023-11-23T20:15:05.966Z,71.69
2023-11-23T20:17:33.931Z,71.65
2023-11-23T20:20:01.664Z,71.67
2023-11-23T20:22:29.249Z,71.66
2023-11-23T20:24:57.149Z,71.62
2023-11-23T20:27:25.010Z,71.74
2023-11-23T20:29:52.833Z,71.68
2023-11-23T20:32:20.391Z,71.56
2023-11-23T20:34:48.370Z,71.74
2023-11-23T20:37:16.125Z,71.78
2023-11-23T20:39:45.379Z,71.77
2023-11-23T20:42:13.156Z,71.69
2023-11-23T20:44:40.855Z,71.73
2023-11-23T20:47:09.340Z,71.65
2023-11-23T20:49:36.896Z,71.51
2023-11-23T20:52:05.081Z,71.40
2023-11-23T20:54:32.858Z,71.31
2023-11-23T20:57:01.045Z,71.32
2023-11-23T20:59:29.027Z,71.27
2023-11-23T21:01:57.612Z,71.16
2023-11-23T21:04:29.245Z,71.04
2023-11-23T21:07:02.271Z,71.00
2023-11-23T21:09:31.412Z,70.94
2023-11-23T21:12:04.168Z,70.91
2023-11-23T21:14:34.200Z,71.02
2023-11-23T21:17:02.213Z,71.03
2023-11-23T21:19:29.743Z,70.88
2023-11-23T21:21:57.347Z,70.96
2023-11-23T21:24:24.975Z,70.86
2023-11-23T21:26:54.460Z,70.94
2023-11-23T21:29:22.098Z,70.98
2023-11-23T21:31:49.657Z,70.90
2023-11-23T21:34:17.344Z,70.71
2023-11-23T21:36:45.060Z,70.55
2023-11-23T21:39:13.061Z,70.60
2023-11-23T21:41:42.062Z,70.54
2023-11-23T21:44:09.581Z,70.61
2023-11-23T21:46:37.966Z,70.53
2023-11-23T21:49:06.655Z,70.43
2023-11-23T21:51:34.469Z,70.36
2023-11-23T21:54:02.225Z,70.27
2023-11-23T21:56:29.754Z,70.21
2023-11-23T21:58:57.270Z,70.40
2023-11-23T22:01:24.876Z,70.37
2023-11-23T22:03:52.624Z,70.19
2023-11-23T22:06:21.379Z,70.08
2023-11-23T22:08:49.191Z,70.06
2023-11-23T22:11:16.988Z,70.07
2023-11-23T22:13:45.378Z,70.22
2023-11-23T22:16:15.086Z,70.30
2023-11-23T22:18:43.235Z,70.27
2023-11-23T22:21:11.513Z,70.09
2023-11-23T22:23:39.612Z,70.07
2023-11-23T22:26:09.759Z,70.07
2023-11-23T22:28:37.899Z,70.07
2023-11-23T22:31:08.023Z,70.12
2023-11-23T22:33:35.712Z,70.01
2023-11-23T22:36:04.673Z,69.80
2023-11-23T22:38:32.847Z,69.69
2023-11-23T22:41:00.784Z,69.60
2023-11-23T22:43:28.654Z,69.58
2023-11-23T22:45:56.777Z,69.45
2023-11-23T22:48:24.351Z,69.24
2023-11-23T22:50:51.953Z,69.02
2023-11-23T22:53:19.642Z,68.92
2023-11-23T22:55:47.101Z,68.83
2023-11-23T22:58:14.768Z,69.01
2023-11-23T23:00:45.057Z,69.02
2023-11-23T23:03:13.838Z,68.98
2023-11-23T23:05:44.300Z,68.84
2023-11-23T23:08:11.812Z,68.75
2023-11-23T23:10:39.528Z,68.69
2023-11-23T23:13:08.931Z,68.69
2023-11-23T23:15:36.475Z,68.69
2023-11-23T23:18:04.248Z,68.74
2023-11-23T23:20:32.119Z,68.57
2023-11-23T23:22:59.888Z,68.48
2023-11-23T23:25:27.902Z,68.44
2023-11-23T23:27:55.701Z,68.43
2023-11-23T23:30:23.400Z,68.35
2023-11-23T23:32:51.089Z,68.39
2023-11-23T23:46:46.078Z,67.14
2023-11-23T23:49:13.784Z,66.07
2023-11-23T23:51:41.382Z,65.94
2023-11-23T23:54:09.934Z,66.03
2023-11-23T23:56:39.458Z,66.11
2023-11-23T23:59:07.007Z,66.28
